createdAt,value
2023-03-20T00:02:27.227Z,101590.19
2023-03-20T00:04:55.623Z,101593.94
2023-03-20T00:07:23.959Z,101598.22
2023-03-20T00:09:52.263Z,101596.75
2023-03-20T00:12:26.212Z,101606.34
2023-03-20T00:14:54.591Z,101607.72
2023-03-20T00:17:23.194Z,101598.75
2023-03-20T00:19:53.125Z,101600.75
2023-03-20T00:22:22.578Z,101593.31
2023-03-20T00:24:50.908Z,101591.66
2023-03-20T00:27:19.623Z,101598.88
2023-03-20T00:29:48.087Z,101601.91
2023-03-20T00:32:16.847Z,101596.22
2023-03-20T00:34:45.193Z,101600.31
2023-03-20T00:37:14.999Z,101617.47
2023-03-20T00:39:43.448Z,101618.00
2023-03-20T00:42:22.156Z,101611.16
2023-03-20T00:44:54.465Z,101601.72
2023-03-20T00:47:25.490Z,101602.63
2023-03-20T00:49:55.972Z,101603.59
2023-03-20T00:52:26.349Z,101596.97
2023-03-20T00:54:54.680Z,101602.41
2023-03-20T00:57:27.751Z,101609.13
2023-03-20T01:00:01.522Z,101600.78
2023-03-20T01:02:31.705Z,101590.53
2023-03-20T01:05:00.199Z,101582.59
2023-03-20T01:07:29.929Z,101588.16
2023-03-20T01:09:58.217Z,101581.38
2023-03-20T01:12:26.664Z,101580.66
2023-03-20T01:14:58.570Z,101591.97
2023-03-20T01:17:29.387Z,101590.38
2023-03-20T01:19:57.740Z,101588.28
2023-03-20T01:22:26.231Z,101581.25
2023-03-20T01:24:55.889Z,101582.47
2023-03-20T01:27:24.246Z,101584.88
2023-03-20T01:29:52.524Z,101581.19
2023-03-20T01:32:21.457Z,101584.38
2023-03-20T01:34:49.873Z,101582.91
2023-03-20T01:37:27.144Z,101581.75
2023-03-20T01:39:58.359Z,101584.91
2023-03-20T01:42:26.994Z,101579.06
2023-03-20T01:44:55.333Z,101580.66
2023-03-20T01:47:26.125Z,101575.63
2023-03-20T01:50:23.386Z,101563.59
2023-03-20T01:52:56.718Z,101569.66
2023-03-20T01:55:27.673Z,101574.38
2023-03-20T01:58:00.308Z,101584.38
2023-03-20T02:00:28.751Z,101579.91
2023-03-20T02:02:57.774Z,101581.22
2023-03-20T02:05:26.415Z,101586.59
2023-03-20T02:08:09.729Z,101583.19
2023-03-20T02:10:40.788Z,101596.94
2023-03-20T02:13:11.023Z,101587.50
2023-03-20T02:15:57.839Z,101585.13
2023-03-20T02:18:26.961Z,101586.63
2023-03-20T02:21:47.825Z,101580.06
2023-03-20T02:24:57.091Z,101574.97
2023-03-20T02:27:35.938Z,101571.94
2023-03-20T02:30:53.389Z,101575.22
2023-03-20T02:34:19.380Z,101587.34
2023-03-20T02:37:24.004Z,101583.06
2023-03-20T02:40:10.342Z,101593.25
2023-03-20T02:42:48.032Z,101597.34
2023-03-20T02:45:23.817Z,101602.97
2023-03-20T02:48:01.671Z,101595.59
2023-03-20T02:50:37.149Z,101595.00
2023-03-20T02:53:19.002Z,101595.09
2023-03-20T02:55:56.499Z,101584.97
2023-03-20T02:58:29.643Z,101592.34
2023-03-20T03:01:04.786Z,101594.75
2023-03-20T03:03:39.379Z,101599.59
2023-03-20T03:06:13.570Z,101604.84
2023-03-20T03:08:49.296Z,101597.63
2023-03-20T03:11:18.132Z,101587.38
2023-03-20T03:13:51.896Z,101571.63
2023-03-20T03:16:27.271Z,101559.03
2023-03-20T03:19:07.049Z,101550.09
2023-03-20T03:21:38.494Z,101561.84
2023-03-20T03:24:37.198Z,101556.59
2023-03-20T03:27:18.616Z,101551.41
2023-03-20T03:29:54.320Z,101555.25
2023-03-20T03:32:34.286Z,101556.09
2023-03-20T03:35:06.516Z,101570.84
2023-03-20T03:37:49.674Z,101572.59
2023-03-20T03:40:29.236Z,101578.59
2023-03-20T03:43:02.974Z,101577.00
2023-03-20T03:45:36.819Z,101563.34
2023-03-20T03:48:12.681Z,101574.50
2023-03-20T03:50:48.845Z,101581.44
2023-03-20T03:53:23.796Z,101570.06
2023-03-20T03:55:59.392Z,101579.97
2023-03-20T03:58:32.268Z,101580.53
2023-03-20T04:01:03.491Z,101590.72
2023-03-20T04:03:39.521Z,101595.72
2023-03-20T04:06:12.514Z,101586.06
2023-03-20T04:08:42.262Z,101583.50
2023-03-20T04:11:17.459Z,101575.25
2023-03-20T04:13:47.243Z,101571.75
2023-03-20T04:16:17.307Z,101575.59
2023-03-20T04:18:47.232Z,101559.44
2023-03-20T04:21:16.892Z,101555.84
2023-03-20T04:23:45.271Z,101549.56
2023-03-20T04:26:15.820Z,101556.16
2023-03-20T04:28:44.672Z,101547.63
2023-03-20T04:31:14.261Z,101542.75
2023-03-20T04:33:42.976Z,101554.31
2023-03-20T04:36:11.812Z,101551.44
2023-03-20T04:38:40.492Z,101553.25
2023-03-20T04:41:09.197Z,101547.97
2023-03-20T04:43:39.376Z,101553.72
2023-03-20T04:46:08.315Z,101550.66
2023-03-20T04:48:36.676Z,101551.22
2023-03-20T04:51:05.347Z,101550.19
2023-03-20T04:53:33.658Z,101543.56
2023-03-20T04:56:02.293Z,101542.91
2023-03-20T04:58:30.673Z,101546.72
2023-03-20T05:01:00.455Z,101547.91
2023-03-20T05:03:28.763Z,101546.53
2023-03-20T05:05:57.122Z,101545.00
2023-03-20T05:08:26.044Z,101542.75
2023-03-20T05:10:54.526Z,101543.94
2023-03-20T05:13:22.804Z,101548.94
2023-03-20T05:15:51.300Z,101547.88
2023-03-20T05:18:20.971Z,101545.38
2023-03-20T05:20:50.688Z,101551.00
2023-03-20T05:23:19.004Z,101549.56
2023-03-20T05:25:47.336Z,101547.28
2023-03-20T05:28:15.616Z,101555.84
2023-03-20T05:30:43.948Z,101555.13
2023-03-20T05:33:12.283Z,101561.34
2023-03-20T05:35:42.060Z,101569.19
2023-03-20T05:38:10.391Z,101560.78
2023-03-20T05:40:38.742Z,101557.16
2023-03-20T05:43:07.038Z,101555.78
2023-03-20T05:45:35.682Z,101559.41
2023-03-20T05:48:04.205Z,101568.00
2023-03-20T05:50:32.551Z,101560.59
2023-03-20T05:53:02.327Z,101556.28
2023-03-20T05:55:30.659Z,101561.50
2023-03-20T05:57:58.985Z,101565.72
2023-03-20T06:00:27.567Z,101568.34
2023-03-20T06:02:56.836Z,101563.78
2023-03-20T06:05:25.191Z,101555.56
2023-03-20T06:07:53.528Z,101542.72
2023-03-20T06:10:23.253Z,101551.63
2023-03-20T06:12:51.649Z,101551.94
2023-03-20T06:15:19.997Z,101543.59
2023-03-20T06:17:48.373Z,101553.19
2023-03-20T06:20:17.034Z,101566.00
2023-03-20T06:22:46.305Z,101564.53
2023-03-20T06:25:15.020Z,101558.72
2023-03-20T06:27:44.953Z,101557.63
2023-03-20T06:30:14.785Z,101563.41
2023-03-20T06:32:43.357Z,101563.63
2023-03-20T06:35:13.107Z,101560.44
2023-03-20T06:37:42.038Z,101560.16
2023-03-20T06:40:12.184Z,101575.09
2023-03-20T06:42:40.479Z,101587.09
2023-03-20T06:45:12.415Z,101599.88
2023-03-20T06:47:40.830Z,101603.94
2023-03-20T06:50:10.868Z,101602.06
2023-03-20T06:52:39.855Z,101603.50
2023-03-20T06:55:09.855Z,101610.00
2023-03-20T06:57:38.316Z,101609.38
2023-03-20T07:00:10.454Z,101615.53
2023-03-20T07:02:38.814Z,101621.78
2023-03-20T07:05:08.560Z,101617.72
2023-03-20T07:07:37.135Z,101620.66
2023-03-20T07:10:07.284Z,101620.22
2023-03-20T07:12:35.556Z,101619.88
2023-03-20T07:15:04.238Z,101616.88
2023-03-20T07:17:34.318Z,101611.19
2023-03-20T07:20:03.187Z,101617.59
2023-03-20T07:22:32.530Z,101623.13
2023-03-20T07:25:01.296Z,101620.09
2023-03-20T07:27:29.949Z,101610.34
2023-03-20T07:29:58.586Z,101614.66
2023-03-20T07:32:27.370Z,101618.69
2023-03-20T07:34:57.337Z,101610.09
2023-03-20T07:37:25.938Z,101618.38
2023-03-20T07:39:54.504Z,101625.97
2023-03-20T07:42:23.045Z,101631.53
2023-03-20T07:44:51.682Z,101632.16
2023-03-20T07:47:20.270Z,101626.22
2023-03-20T07:49:49.137Z,101631.06
2023-03-20T07:52:19.077Z,101633.91
2023-03-20T07:54:47.714Z,101636.59
2023-03-20T07:57:17.129Z,101632.66
2023-03-20T07:59:45.899Z,101630.13
2023-03-20T08:02:17.470Z,101628.31
2023-03-20T08:04:46.456Z,101641.66
2023-03-20T08:07:15.313Z,101642.88
2023-03-20T08:09:45.447Z,101650.72
2023-03-20T08:12:13.990Z,101650.88
2023-03-20T08:14:43.816Z,101647.34
2023-03-20T08:17:15.457Z,101641.34
2023-03-20T08:19:44.553Z,101647.44
2023-03-20T08:22:13.188Z,101651.84
2023-03-20T08:24:41.808Z,101652.31
2023-03-20T08:27:11.785Z,101654.72
2023-03-20T08:29:40.456Z,101655.69
2023-03-20T08:32:08.997Z,101668.31
2023-03-20T08:34:37.793Z,101652.91
2023-03-20T08:37:08.010Z,101662.66
2023-03-20T08:39:36.855Z,101654.91
2023-03-20T08:42:05.694Z,101656.34
2023-03-20T08:44:35.853Z,101650.25
2023-03-20T08:47:05.570Z,101653.03
2023-03-20T08:49:34.294Z,101648.78
2023-03-20T08:52:02.841Z,101649.16
2023-03-20T08:54:31.880Z,101656.19
2023-03-20T08:57:00.402Z,101656.09
2023-03-20T08:59:29.147Z,101645.53
2023-03-20T09:01:59.160Z,101642.00
2023-03-20T09:04:28.078Z,101642.94
2023-03-20T09:06:57.079Z,101650.88
2023-03-20T09:09:29.685Z,101644.91
2023-03-20T09:11:58.572Z,101648.22
2023-03-20T09:14:28.386Z,101645.94
2023-03-20T09:16:58.407Z,101656.19
2023-03-20T09:19:27.129Z,101644.91
2023-03-20T09:21:55.860Z,101649.41
2023-03-20T09:24:26.221Z,101642.81
2023-03-20T09:26:54.785Z,101646.63
2023-03-20T09:29:23.417Z,101649.81
2023-03-20T09:31:53.869Z,101641.28
2023-03-20T09:34:24.332Z,101649.00
2023-03-20T09:36:53.073Z,101648.16
2023-03-20T09:39:21.624Z,101652.19
2023-03-20T09:41:57.335Z,101667.25
2023-03-20T09:44:45.680Z,101649.38
2023-03-20T09:47:23.592Z,101660.13
2023-03-20T09:50:09.526Z,101654.19
2023-03-20T09:52:42.124Z,101652.78
2023-03-20T09:55:16.930Z,101657.44
2023-03-20T09:57:49.304Z,101652.53
2023-03-20T10:00:20.277Z,101659.78
2023-03-20T10:02:53.933Z,101657.91
2023-03-20T10:05:27.386Z,101663.41
2023-03-20T10:07:57.956Z,101654.94
2023-03-20T10:10:36.265Z,101656.41
2023-03-20T10:13:21.532Z,101655.56
2023-03-20T10:15:56.688Z,101654.03
2023-03-20T10:18:28.382Z,101650.84
2023-03-20T10:21:03.218Z,101656.41
2023-03-20T10:23:37.703Z,101659.56
2023-03-20T10:26:11.684Z,101649.38
2023-03-20T10:28:47.241Z,101649.19
2023-03-20T10:31:32.856Z,101652.81
2023-03-20T10:34:18.876Z,101649.69
2023-03-20T10:36:59.005Z,101646.69
2023-03-20T10:39:41.916Z,101650.56
2023-03-20T10:42:19.894Z,101635.19
2023-03-20T10:44:54.866Z,101637.94
2023-03-20T10:47:27.410Z,101645.34
2023-03-20T10:49:59.353Z,101632.84
2023-03-20T10:52:32.389Z,101632.63
2023-03-20T10:55:05.133Z,101643.66
2023-03-20T10:57:38.372Z,101629.75
2023-03-20T11:00:12.988Z,101634.97
2023-03-20T11:02:41.694Z,101637.09
2023-03-20T11:05:23.970Z,101626.06
2023-03-20T11:08:03.413Z,101617.97
2023-03-20T11:10:35.284Z,101629.22
2023-03-20T11:13:16.777Z,101634.81
2023-03-20T11:15:45.646Z,101621.28
2023-03-20T11:18:16.649Z,101611.81
2023-03-20T11:20:48.790Z,101620.13
2023-03-20T11:23:21.317Z,101611.41
2023-03-20T11:25:54.241Z,101617.03
2023-03-20T11:28:31.514Z,101609.94
2023-03-20T11:31:04.843Z,101613.75
2023-03-20T11:33:38.819Z,101606.03
2023-03-20T11:36:21.479Z,101611.81
2023-03-20T11:38:52.576Z,101607.53
2023-03-20T11:41:25.316Z,101612.00
2023-03-20T11:43:54.166Z,101604.31
2023-03-20T11:46:24.248Z,101604.63
2023-03-20T11:49:08.078Z,101614.38
2023-03-20T11:51:38.224Z,101611.16
2023-03-20T11:54:16.984Z,101614.16
2023-03-20T11:56:55.190Z,101621.81
2023-03-20T11:59:26.918Z,101618.63
2023-03-20T12:01:58.002Z,101608.56
2023-03-20T12:04:30.766Z,101620.41
2023-03-20T12:07:04.005Z,101620.31
2023-03-20T12:09:53.936Z,101626.06
2023-03-20T12:12:34.852Z,101626.81
2023-03-20T12:15:09.983Z,101620.09
2023-03-20T12:17:47.516Z,101612.13
2023-03-20T12:20:29.043Z,101617.44
2023-03-20T12:23:07.753Z,101611.19
2023-03-20T12:25:42.913Z,101614.47
2023-03-20T12:28:18.955Z,101611.63
2023-03-20T12:31:02.594Z,101608.16
2023-03-20T12:33:42.141Z,101601.84
2023-03-20T12:36:16.680Z,101608.19
2023-03-20T12:38:46.690Z,101599.19
2023-03-20T12:41:23.556Z,101593.38
2023-03-20T12:44:20.647Z,101598.81
2023-03-20T12:46:58.320Z,101586.53
2023-03-20T12:49:37.804Z,101591.47
2023-03-20T12:52:17.465Z,101580.41
2023-03-20T12:55:13.314Z,101571.75
2023-03-20T12:57:52.829Z,101579.56
2023-03-20T13:00:32.083Z,101580.34
2023-03-20T13:03:19.515Z,101569.78
2023-03-20T13:05:53.353Z,101563.47
2023-03-20T13:08:45.908Z,101561.72
2023-03-20T13:11:22.011Z,101566.22
2023-03-20T13:13:56.193Z,101559.19
2023-03-20T13:16:35.720Z,101561.91
2023-03-20T13:19:13.609Z,101561.78
2023-03-20T13:21:49.705Z,101550.25
2023-03-20T13:24:32.259Z,101542.72
2023-03-20T13:27:08.459Z,101524.91
2023-03-20T13:29:48.232Z,101539.03
2023-03-20T13:32:26.832Z,101545.72
2023-03-20T13:35:18.849Z,101545.53
2023-03-20T13:37:52.047Z,101538.75
2023-03-20T13:40:24.573Z,101545.50
2023-03-20T13:42:58.992Z,101551.78
2023-03-20T13:45:34.558Z,101536.19
2023-03-20T13:48:16.555Z,101542.13
2023-03-20T13:50:50.918Z,101538.50
2023-03-20T13:53:30.408Z,101533.91
2023-03-20T13:56:08.845Z,101538.16
2023-03-20T13:58:59.052Z,101539.53
2023-03-20T14:01:39.745Z,101530.81
2023-03-20T14:04:16.079Z,101525.59
2023-03-20T14:06:52.470Z,101531.00
2023-03-20T14:09:29.571Z,101533.72
2023-03-20T14:12:01.528Z,101522.53
2023-03-20T14:14:31.737Z,101523.78
2023-03-20T14:17:13.735Z,101516.31
2023-03-20T14:19:42.595Z,101508.19
2023-03-20T14:22:17.924Z,101512.75
2023-03-20T14:24:55.174Z,101509.91
2023-03-20T14:27:42.704Z,101505.88
2023-03-20T14:30:39.376Z,101508.31
2023-03-20T14:33:26.131Z,101496.28
2023-03-20T14:36:20.949Z,101495.66
2023-03-20T14:38:58.797Z,101497.00
2023-03-20T14:41:36.636Z,101501.44
2023-03-20T14:44:23.522Z,101511.97
2023-03-20T14:46:58.932Z,101495.97
2023-03-20T14:49:51.878Z,101489.13
2023-03-20T14:52:36.143Z,101494.38
2023-03-20T14:55:31.600Z,101489.44
2023-03-20T14:58:04.011Z,101479.44
2023-03-20T15:00:46.760Z,101481.16
2023-03-20T15:03:17.776Z,101493.00
2023-03-20T15:05:48.933Z,101498.25
2023-03-20T15:08:24.536Z,101496.75
2023-03-20T15:10:56.522Z,101495.41
2023-03-20T15:13:26.832Z,101485.28
2023-03-20T15:15:58.759Z,101487.25
2023-03-20T15:18:29.333Z,101485.97
2023-03-20T15:20:59.854Z,101489.59
2023-03-20T15:23:29.227Z,101473.94
2023-03-20T15:25:58.350Z,101464.81
2023-03-20T15:28:29.122Z,101466.13
2023-03-20T15:31:00.485Z,101457.25
2023-03-20T15:33:33.832Z,101467.16
2023-03-20T15:36:15.693Z,101465.78
2023-03-20T15:38:47.700Z,101461.84
2023-03-20T15:41:28.831Z,101457.44
2023-03-20T15:44:15.071Z,101454.28
2023-03-20T15:46:52.866Z,101441.28
2023-03-20T15:49:23.038Z,101440.94
2023-03-20T15:51:55.066Z,101431.47
2023-03-20T15:54:24.801Z,101427.97
2023-03-20T15:56:55.756Z,101432.06
2023-03-20T15:59:28.033Z,101425.41
2023-03-20T16:02:01.686Z,101419.69
2023-03-20T16:04:31.217Z,101428.91
2023-03-20T16:07:04.970Z,101430.84
2023-03-20T16:09:44.200Z,101434.91
2023-03-20T16:12:19.207Z,101438.25
2023-03-20T16:14:50.380Z,101434.84
2023-03-20T16:17:21.721Z,101434.81
2023-03-20T16:19:51.380Z,101433.63
2023-03-20T16:22:28.235Z,101440.69
2023-03-20T16:25:01.806Z,101438.22
2023-03-20T16:27:34.518Z,101433.66
2023-03-20T16:30:09.994Z,101436.97
2023-03-20T16:32:41.961Z,101430.56
2023-03-20T16:35:20.044Z,101435.75
2023-03-20T16:37:55.541Z,101434.75
2023-03-20T16:40:32.638Z,101438.81
2023-03-20T16:43:08.596Z,101431.06
2023-03-20T16:45:38.944Z,101429.06
2023-03-20T16:48:28.427Z,101432.81
2023-03-20T16:51:00.998Z,101433.63
2023-03-20T16:53:37.438Z,101434.94
2023-03-20T16:59:28.348Z,101430.25
2023-03-20T17:02:01.847Z,101426.09
2023-03-20T17:04:35.645Z,101421.47
2023-03-20T17:07:11.484Z,101421.34
2023-03-20T17:09:56.168Z,101431.56
2023-03-20T17:12:27.022Z,101434.97
2023-03-20T17:14:56.328Z,101422.22
2023-03-20T17:17:26.087Z,101426.69
2023-03-20T17:19:55.166Z,101429.50
2023-03-20T17:22:29.616Z,101427.34
2023-03-20T17:25:00.729Z,101435.19
2023-03-20T17:27:31.332Z,101429.94
2023-03-20T17:30:00.605Z,101438.00
2023-03-20T17:32:29.921Z,101442.81
2023-03-20T17:34:59.723Z,101438.84
2023-03-20T17:37:30.535Z,101440.84
2023-03-20T17:40:01.084Z,101441.78
2023-03-20T17:42:32.238Z,101453.53
2023-03-20T17:45:02.274Z,101449.09
2023-03-20T17:50:24.474Z,101450.34
2023-03-20T17:52:57.463Z,101446.88
2023-03-20T17:55:27.917Z,101454.97
2023-03-20T17:57:57.033Z,101453.13
2023-03-20T18:00:28.153Z,101446.41
2023-03-20T18:02:57.029Z,101456.16
2023-03-20T18:05:26.122Z,101444.84
2023-03-20T18:07:58.251Z,101454.09
2023-03-20T18:10:32.896Z,101454.78
2023-03-20T18:13:02.345Z,101453.25
2023-03-20T18:15:35.751Z,101449.19
2023-03-20T18:18:09.677Z,101456.63
2023-03-20T18:20:41.611Z,101445.97
2023-03-20T18:23:12.101Z,101453.16
2023-03-20T18:25:44.570Z,101457.31
2023-03-20T18:28:23.097Z,101446.28
2023-03-20T18:30:53.124Z,101452.88
2023-03-20T18:33:27.199Z,101458.31
2023-03-20T18:35:58.198Z,101450.13
2023-03-20T18:38:31.106Z,101449.81
2023-03-20T18:41:54.172Z,101457.50
2023-03-20T18:44:30.403Z,101453.25
2023-03-20T18:47:01.146Z,101446.25
2023-03-20T18:49:31.621Z,101457.72
2023-03-20T18:52:03.847Z,101457.56
2023-03-20T18:54:32.987Z,101456.16
2023-03-20T18:57:02.462Z,101460.63
2023-03-20T18:59:33.573Z,101449.84
2023-03-20T19:02:03.219Z,101449.25
2023-03-20T19:04:35.359Z,101455.13
2023-03-20T19:07:10.502Z,101451.91
2023-03-20T19:09:47.891Z,101451.16
2023-03-20T19:14:53.432Z,101448.63
2023-03-20T19:17:21.989Z,101443.81
2023-03-20T19:19:50.565Z,101445.16
2023-03-20T19:22:29.301Z,101451.78
2023-03-20T19:24:58.024Z,101448.34
2023-03-20T19:27:27.073Z,101447.72
2023-03-20T19:29:57.501Z,101446.34
2023-03-20T19:32:26.028Z,101446.63
2023-03-20T19:35:40.893Z,101432.28
2023-03-20T19:37:43.082Z,101433.50
2023-03-20T19:40:26.414Z,101429.03
2023-03-20T19:43:02.572Z,101431.22
2023-03-20T19:45:35.749Z,101425.63
2023-03-20T19:48:16.452Z,101424.16
2023-03-20T19:50:46.849Z,101421.94
2023-03-20T19:53:17.892Z,101425.59
2023-03-20T19:55:46.779Z,101416.88
2023-03-20T19:58:15.657Z,101420.50
2023-03-20T20:00:58.884Z,101411.94
2023-03-20T20:03:28.826Z,101411.09
2023-03-20T20:05:57.654Z,101412.78
2023-03-20T20:08:42.453Z,101411.41
2023-03-20T20:11:15.096Z,101416.78
2023-03-20T20:16:36.542Z,101417.13
2023-03-20T20:19:05.984Z,101414.63
2023-03-20T20:24:23.325Z,101414.84
2023-03-20T20:26:59.978Z,101411.00
2023-03-20T20:29:35.992Z,101405.06
2023-03-20T20:32:06.374Z,101403.41
2023-03-20T20:40:14.582Z,101407.72
2023-03-20T20:42:43.664Z,101410.06
2023-03-20T20:45:13.776Z,101410.19
2023-03-20T20:47:44.970Z,101406.09
2023-03-20T20:50:14.722Z,101416.31
2023-03-20T20:52:43.807Z,101409.75
2023-03-20T20:55:22.542Z,101406.53
2023-03-20T20:57:52.666Z,101402.88
2023-03-20T21:00:27.521Z,101408.84
2023-03-20T21:03:01.517Z,101411.84
2023-03-20T21:05:31.162Z,101412.38
2023-03-20T21:07:59.680Z,101410.88
2023-03-20T21:10:28.606Z,101408.94
2023-03-20T21:12:59.769Z,101416.41
2023-03-20T21:15:28.723Z,101420.06
2023-03-20T21:18:01.598Z,101418.69
2023-03-20T21:20:32.002Z,101417.34
2023-03-20T21:23:00.753Z,101410.00
2023-03-20T21:25:39.577Z,101413.88
2023-03-20T21:28:09.592Z,101422.72
2023-03-20T21:30:44.171Z,101411.88
2023-03-20T21:33:19.748Z,101417.06
2023-03-20T21:35:51.298Z,101417.28
2023-03-20T21:41:11.000Z,101413.81
2023-03-20T21:43:39.803Z,101410.84
2023-03-20T21:55:12.843Z,101401.84
2023-03-20T22:01:03.218Z,101399.41
2023-03-20T22:03:10.554Z,101407.38
2023-03-20T22:09:42.844Z,101395.47
2023-03-20T22:12:01.752Z,101405.00
2023-03-20T22:17:41.494Z,101416.09
2023-03-20T22:26:15.573Z,101424.41
2023-03-20T22:28:56.756Z,101423.63
2023-03-20T22:34:38.852Z,101424.97
2023-03-20T22:37:31.676Z,101426.13
2023-03-20T22:43:07.085Z,101421.88
2023-03-20T22:45:13.028Z,101417.53
2023-03-20T22:47:41.841Z,101413.72
2023-03-20T22:50:11.617Z,101413.88
2023-03-20T22:52:49.235Z,101404.28
2023-03-20T22:55:19.134Z,101401.47
2023-03-20T22:58:03.802Z,101401.50
2023-03-20T23:00:35.011Z,101399.69
2023-03-20T23:03:19.470Z,101402.44
2023-03-20T23:05:51.734Z,101395.88
2023-03-20T23:08:20.783Z,101396.31
2023-03-20T23:10:51.747Z,101405.69
2023-03-20T23:13:22.522Z,101390.53
2023-03-20T23:15:51.758Z,101390.97
2023-03-20T23:18:20.940Z,101389.78
2023-03-20T23:20:49.648Z,101387.09
2023-03-20T23:23:18.482Z,101379.47
2023-03-20T23:25:47.236Z,101378.28
2023-03-20T23:28:15.919Z,101374.91
2023-03-20T23:30:54.116Z,101377.94
2023-03-20T23:33:28.300Z,101372.97
2023-03-20T23:36:14.075Z,101364.91
2023-03-20T23:38:46.704Z,101369.16
2023-03-20T23:41:15.821Z,101374.81
2023-03-20T23:43:44.399Z,101374.63
2023-03-20T23:46:14.612Z,101364.44
2023-03-20T23:48:43.269Z,101362.97
2023-03-20T23:51:11.897Z,101363.78
2023-03-20T23:53:40.773Z,101359.06
2023-03-20T23:56:11.396Z,101352.44
2023-03-20T23:58:47.537Z,101351.53
